createdAt,value
2018-06-14T00:00:27.000Z,100443
2018-06-14T00:01:27.000Z,100443
2018-06-14T00:03:27.000Z,100444
2018-06-14T00:04:27.000Z,100448
2018-06-14T00:05:57.000Z,100443
2018-06-14T00:07:27.000Z,100446
2018-06-14T00:09:27.000Z,100446
2018-06-14T00:10:27.000Z,100447
2018-06-14T00:13:27.000Z,100449
2018-06-14T00:14:27.000Z,100449
2018-06-14T00:16:12.000Z,100439
2018-06-14T00:17:27.000Z,100442
2018-06-14T00:19:27.000Z,100437
2018-06-14T00:21:12.000Z,100440
2018-06-14T00:22:27.000Z,100440
2018-06-14T00:23:27.000Z,100439
2018-06-14T00:24:27.000Z,100434
2018-06-14T00:26:27.000Z,100442
2018-06-14T00:28:27.000Z,100432
2018-06-14T00:29:27.000Z,100428
2018-06-14T00:31:27.000Z,100424
2018-06-14T00:32:27.000Z,100423
2018-06-14T00:33:27.000Z,100425
2018-06-14T00:35:27.000Z,100421
2018-06-14T00:37:27.000Z,100420
2018-06-14T00:39:12.000Z,100416
2018-06-14T00:40:27.000Z,100414
2018-06-14T00:42:27.000Z,100423
2018-06-14T00:44:12.000Z,100416
2018-06-14T00:45:27.000Z,100428
2018-06-14T00:47:27.000Z,100430
2018-06-14T00:49:27.000Z,100433
2018-06-14T00:50:27.000Z,100430
2018-06-14T00:51:27.000Z,100428
2018-06-14T00:53:12.000Z,100427
2018-06-14T00:54:27.000Z,100426
2018-06-14T00:56:27.000Z,100429
2018-06-14T00:57:27.000Z,100427
2018-06-14T00:59:27.000Z,100420
2018-06-14T01:00:27.000Z,100429
2018-06-14T01:02:27.000Z,100429
2018-06-14T01:04:11.000Z,100422
2018-06-14T01:05:27.000Z,100422
2018-06-14T01:07:11.000Z,100420
2018-06-14T01:08:27.000Z,100420
2018-06-14T01:10:27.000Z,100418
2018-06-14T01:12:27.000Z,100423
2018-06-14T01:14:27.000Z,100426
2018-06-14T01:15:27.000Z,100429
2018-06-14T01:16:27.000Z,100430
2018-06-14T01:18:27.000Z,100432
2018-06-14T01:20:27.000Z,100418
2018-06-14T01:22:11.000Z,100427
2018-06-14T01:23:27.000Z,100430
2018-06-14T01:25:27.000Z,100434
2018-06-14T01:27:27.000Z,100430
2018-06-14T01:28:27.000Z,100434
2018-06-14T01:29:56.000Z,100423
2018-06-14T01:31:27.000Z,100425
2018-06-14T01:33:27.000Z,100424
2018-06-14T01:34:27.000Z,100424
2018-06-14T01:36:27.000Z,100424
2018-06-14T01:38:27.000Z,100428
2018-06-14T01:39:27.000Z,100426
2018-06-14T01:41:27.000Z,100428
2018-06-14T01:43:27.000Z,100428
2018-06-14T01:45:27.000Z,100432
2018-06-14T01:46:27.000Z,100430
2018-06-14T01:47:27.000Z,100434
2018-06-14T01:49:11.000Z,100432
2018-06-14T01:50:27.000Z,100431
2018-06-14T01:51:27.000Z,100422
2018-06-14T01:53:27.000Z,100419
2018-06-14T01:54:27.000Z,100423
2018-06-14T01:56:27.000Z,100424
2018-06-14T01:57:27.000Z,100419
2018-06-14T01:59:11.000Z,100416
2018-06-14T02:00:27.000Z,100423
2018-06-14T02:01:27.000Z,100421
2018-06-14T02:03:11.000Z,100418
2018-06-14T02:04:26.000Z,100418
2018-06-14T02:06:26.000Z,100417
2018-06-14T02:07:26.000Z,100415
2018-06-14T02:09:26.000Z,100421
2018-06-14T02:11:11.000Z,100406
2018-06-14T02:12:11.000Z,100411
2018-06-14T02:13:26.000Z,100412
2018-06-14T02:15:26.000Z,100411
2018-06-14T02:17:26.000Z,100410
2018-06-14T02:18:26.000Z,100411
2018-06-14T02:20:26.000Z,100415
2018-06-14T02:21:26.000Z,100408
2018-06-14T02:22:56.000Z,100410
2018-06-14T02:24:26.000Z,100416
2018-06-14T02:26:26.000Z,100408
2018-06-14T02:28:11.000Z,100408
2018-06-14T02:29:26.000Z,100414
2018-06-14T02:30:26.000Z,100411
2018-06-14T02:32:11.000Z,100407
2018-06-14T02:33:11.000Z,100403
2018-06-14T02:34:26.000Z,100411
2018-06-14T02:35:26.000Z,100413
2018-06-14T02:36:56.000Z,100409
2018-06-14T02:38:26.000Z,100406
2018-06-14T02:40:26.000Z,100403
2018-06-14T02:42:26.000Z,100400
2018-06-14T02:43:26.000Z,100401
2018-06-14T02:45:11.000Z,100401
2018-06-14T02:46:26.000Z,100391
2018-06-14T02:48:26.000Z,100395
2018-06-14T02:50:26.000Z,100399
2018-06-14T02:52:26.000Z,100396
2018-06-14T02:53:26.000Z,100401
2018-06-14T02:55:26.000Z,100398
2018-06-14T02:56:26.000Z,100401
2018-06-14T02:58:26.000Z,100402
2018-06-14T03:00:26.000Z,100398
2018-06-14T03:01:26.000Z,100400
2018-06-14T03:03:26.000Z,100405
2018-06-14T03:05:26.000Z,100407
2018-06-14T03:07:27.000Z,100404
2018-06-14T03:09:27.000Z,100404
2018-06-14T03:10:56.000Z,100398
2018-06-14T03:12:27.000Z,100397
2018-06-14T03:14:27.000Z,100403
2018-06-14T03:16:11.000Z,100403
2018-06-14T03:17:27.000Z,100397
2018-06-14T03:19:27.000Z,100399
2018-06-14T03:20:27.000Z,100400
2018-06-14T03:22:27.000Z,100385
2018-06-14T03:23:27.000Z,100392
2018-06-14T03:25:11.000Z,100396
2018-06-14T03:26:27.000Z,100394
2018-06-14T03:27:27.000Z,100396
2018-06-14T03:29:27.000Z,100394
2018-06-14T03:30:27.000Z,100394
2018-06-14T03:31:27.000Z,100388
2018-06-14T03:33:27.000Z,100382
2018-06-14T03:35:27.000Z,100386
2018-06-14T03:37:27.000Z,100383
2018-06-14T03:39:27.000Z,100382
2018-06-14T03:41:27.000Z,100385
2018-06-14T03:42:27.000Z,100381
2018-06-14T03:43:27.000Z,100381
2018-06-14T03:45:27.000Z,100382
2018-06-14T03:47:27.000Z,100383
2018-06-14T03:49:27.000Z,100379
2018-06-14T03:51:11.000Z,100377
2018-06-14T03:52:27.000Z,100380
2018-06-14T03:54:27.000Z,100375
2018-06-14T03:56:27.000Z,100372
2018-06-14T03:57:27.000Z,100377
2018-06-14T03:59:11.000Z,100377
2018-06-14T04:00:27.000Z,100380
2018-06-14T04:01:27.000Z,100370
2018-06-14T04:02:27.000Z,100373
2018-06-14T04:04:27.000Z,100380
2018-06-14T04:06:27.000Z,100379
2018-06-14T04:07:27.000Z,100381
2018-06-14T04:09:27.000Z,100378
2018-06-14T04:11:26.000Z,100376
2018-06-14T04:12:26.000Z,100375
2018-06-14T04:14:26.000Z,100371
2018-06-14T04:16:26.000Z,100368
2018-06-14T04:18:11.000Z,100375
2018-06-14T04:19:26.000Z,100371
2018-06-14T04:21:26.000Z,100377
2018-06-14T04:22:26.000Z,100372
2018-06-14T04:24:26.000Z,100376
2018-06-14T04:26:26.000Z,100373
2018-06-14T04:28:26.000Z,100371
2018-06-14T04:30:26.000Z,100374
2018-06-14T04:31:26.000Z,100375
2018-06-14T04:33:26.000Z,100373
2018-06-14T04:35:11.000Z,100372
2018-06-14T04:36:26.000Z,100381
2018-06-14T04:37:26.000Z,100370
2018-06-14T04:39:11.000Z,100382
2018-06-14T04:40:26.000Z,100377
2018-06-14T04:41:26.000Z,100378
2018-06-14T04:42:26.000Z,100375
2018-06-14T04:43:26.000Z,100385
2018-06-14T04:44:56.000Z,100379
2018-06-14T04:46:26.000Z,100380
2018-06-14T04:47:26.000Z,100380
2018-06-14T04:48:26.000Z,100381
2018-06-14T04:50:26.000Z,100378
2018-06-14T04:52:26.000Z,100380
2018-06-14T04:53:26.000Z,100378
2018-06-14T04:54:26.000Z,100382
2018-06-14T04:56:26.000Z,100380
2018-06-14T04:57:26.000Z,100380
2018-06-14T04:59:26.000Z,100374
2018-06-14T05:01:26.000Z,100376
2018-06-14T05:03:26.000Z,100376
2018-06-14T05:05:26.000Z,100373
2018-06-14T05:07:26.000Z,100372
2018-06-14T05:09:26.000Z,100371
2018-06-14T05:11:26.000Z,100378
2018-06-14T05:13:26.000Z,100375
2018-06-14T05:14:26.000Z,100373
2018-06-14T05:15:26.000Z,100366
2018-06-14T05:17:26.000Z,100367
2018-06-14T05:18:26.000Z,100371
2018-06-14T05:20:26.000Z,100363
2018-06-14T05:22:26.000Z,100362
2018-06-14T05:23:26.000Z,100368
2018-06-14T05:24:26.000Z,100366
2018-06-14T05:26:11.000Z,100367
2018-06-14T05:27:26.000Z,100364
2018-06-14T05:28:26.000Z,100369
2018-06-14T05:30:26.000Z,100370
2018-06-14T05:31:26.000Z,100372
2018-06-14T05:33:11.000Z,100373
2018-06-14T05:34:26.000Z,100371
2018-06-14T05:35:26.000Z,100372
2018-06-14T05:37:26.000Z,100374
2018-06-14T05:39:26.000Z,100372
2018-06-14T05:41:11.000Z,100372
2018-06-14T05:42:26.000Z,100374
2018-06-14T05:44:26.000Z,100362
2018-06-14T05:46:26.000Z,100367
2018-06-14T05:48:26.000Z,100365
2018-06-14T05:50:26.000Z,100361
2018-06-14T05:51:26.000Z,100361
2018-06-14T05:53:26.000Z,100365
2018-06-14T05:54:26.000Z,100361
2018-06-14T05:56:26.000Z,100365
2018-06-14T05:58:26.000Z,100362
2018-06-14T06:00:26.000Z,100360
2018-06-14T06:02:26.000Z,100362
2018-06-14T06:04:11.000Z,100361
2018-06-14T06:05:26.000Z,100361
2018-06-14T06:07:26.000Z,100359
2018-06-14T06:09:26.000Z,100363
2018-06-14T06:11:26.000Z,100358
2018-06-14T06:13:26.000Z,100359
2018-06-14T06:15:26.000Z,100359
2018-06-14T06:16:26.000Z,100352
2018-06-14T06:17:27.000Z,100364
2018-06-14T06:19:27.000Z,100352
2018-06-14T06:21:11.000Z,100359
2018-06-14T06:22:27.000Z,100353
2018-06-14T06:23:27.000Z,100351
2018-06-14T06:25:27.000Z,100348
2018-06-14T06:27:27.000Z,100345
2018-06-14T06:28:27.000Z,100340
2018-06-14T06:29:27.000Z,100345
2018-06-14T06:31:11.000Z,100345
2018-06-14T06:32:27.000Z,100344
2018-06-14T06:34:27.000Z,100335
2018-06-14T06:35:27.000Z,100343
2018-06-14T06:37:27.000Z,100343
2018-06-14T06:38:27.000Z,100336
2018-06-14T06:40:11.000Z,100344
2018-06-14T06:41:27.000Z,100357
2018-06-14T06:43:27.000Z,100345
2018-06-14T06:45:27.000Z,100350
2018-06-14T06:47:11.000Z,100354
2018-06-14T06:48:27.000Z,100346
2018-06-14T06:50:11.000Z,100341
2018-06-14T06:51:27.000Z,100339
2018-06-14T06:52:27.000Z,100355
2018-06-14T06:54:27.000Z,100354
2018-06-14T06:56:27.000Z,100350
2018-06-14T06:58:11.000Z,100354
2018-06-14T06:59:27.000Z,100350
2018-06-14T07:00:27.000Z,100356
2018-06-14T07:02:27.000Z,100349
2018-06-14T07:04:27.000Z,100356
2018-06-14T07:05:27.000Z,100350
2018-06-14T07:07:27.000Z,100350
2018-06-14T07:09:27.000Z,100348
2018-06-14T07:10:27.000Z,100344
2018-06-14T07:12:27.000Z,100352
2018-06-14T07:14:27.000Z,100350
2018-06-14T07:15:27.000Z,100340
2018-06-14T07:17:27.000Z,100342
2018-06-14T07:18:27.000Z,100331
2018-06-14T07:20:26.000Z,100338
2018-06-14T07:22:26.000Z,100342
2018-06-14T07:24:26.000Z,100332
2018-06-14T07:25:27.000Z,100345
2018-06-14T07:27:26.000Z,100346
2018-06-14T07:29:26.000Z,100328
2018-06-14T07:31:26.000Z,100343
2018-06-14T07:33:27.000Z,100336
2018-06-14T07:35:26.000Z,100331
2018-06-14T07:36:26.000Z,100331
2018-06-14T07:37:27.000Z,100327
2018-06-14T07:39:11.000Z,100322
2018-06-14T07:40:26.000Z,100318
2018-06-14T07:42:26.000Z,100325
2018-06-14T07:43:26.000Z,100333
2018-06-14T07:45:26.000Z,100328
2018-06-14T07:46:26.000Z,100331
2018-06-14T07:48:27.000Z,100327
2018-06-14T07:50:26.000Z,100334
2018-06-14T07:52:11.000Z,100342
2018-06-14T07:53:26.000Z,100323
2018-06-14T07:55:26.000Z,100324
2018-06-14T07:57:27.000Z,100319
2018-06-14T07:58:56.000Z,100321
2018-06-14T08:00:26.000Z,100323
2018-06-14T08:02:26.000Z,100311
2018-06-14T08:03:27.000Z,100311
2018-06-14T08:05:27.000Z,100321
2018-06-14T08:07:26.000Z,100312
2018-06-14T08:08:27.000Z,100303
2018-06-14T08:10:27.000Z,100309
2018-06-14T08:12:11.000Z,100307
2018-06-14T08:13:26.000Z,100308
2018-06-14T08:14:26.000Z,100321
2018-06-14T08:15:56.000Z,100310
2018-06-14T08:17:27.000Z,100318
2018-06-14T08:19:26.000Z,100312
2018-06-14T08:20:26.000Z,100321
2018-06-14T08:22:27.000Z,100325
2018-06-14T08:24:27.000Z,100320
2018-06-14T08:26:27.000Z,100311
2018-06-14T08:28:27.000Z,100313
2018-06-14T08:30:27.000Z,100311
2018-06-14T08:31:27.000Z,100304
2018-06-14T08:33:27.000Z,100309
2018-06-14T08:35:27.000Z,100300
2018-06-14T08:37:27.000Z,100304
2018-06-14T08:39:27.000Z,100306
2018-06-14T08:41:12.000Z,100292
2018-06-14T08:42:27.000Z,100299
2018-06-14T08:44:27.000Z,100297
2018-06-14T08:46:27.000Z,100299
2018-06-14T08:47:56.000Z,100304
2018-06-14T08:49:27.000Z,100301
2018-06-14T08:50:27.000Z,100296
2018-06-14T08:52:27.000Z,100292
2018-06-14T08:54:27.000Z,100299
2018-06-14T08:56:27.000Z,100300
2018-06-14T08:57:27.000Z,100299
2018-06-14T08:59:27.000Z,100293
2018-06-14T09:01:27.000Z,100300
2018-06-14T09:02:27.000Z,100295
2018-06-14T09:04:27.000Z,100292
2018-06-14T09:05:27.000Z,100301
2018-06-14T09:07:27.000Z,100290
2018-06-14T09:09:27.000Z,100299
2018-06-14T09:10:27.000Z,100292
2018-06-14T09:12:27.000Z,100291
2018-06-14T09:14:27.000Z,100295
2018-06-14T09:16:12.000Z,100297
2018-06-14T09:17:27.000Z,100289
2018-06-14T09:19:12.000Z,100286
2018-06-14T09:20:27.000Z,100293
2018-06-14T09:22:27.000Z,100280
2018-06-14T09:24:27.000Z,100283
2018-06-14T09:26:27.000Z,100292
2018-06-14T09:28:26.000Z,100286
2018-06-14T09:30:11.000Z,100290
2018-06-14T09:31:26.000Z,100281
2018-06-14T09:33:26.000Z,100285
2018-06-14T09:35:26.000Z,100279
2018-06-14T09:37:26.000Z,100277
2018-06-14T09:39:26.000Z,100281
2018-06-14T09:41:26.000Z,100283
2018-06-14T09:42:56.000Z,100281
2018-06-14T09:44:26.000Z,100288
2018-06-14T09:45:26.000Z,100282
2018-06-14T09:47:26.000Z,100292
2018-06-14T09:49:26.000Z,100287
2018-06-14T09:51:26.000Z,100299
2018-06-14T09:52:26.000Z,100301
2018-06-14T09:54:11.000Z,100305
2018-06-14T09:55:26.000Z,100302
2018-06-14T09:57:26.000Z,100295
2018-06-14T09:58:26.000Z,100297
2018-06-14T09:59:26.000Z,100298
2018-06-14T10:01:26.000Z,100293
2018-06-14T10:02:26.000Z,100287
2018-06-14T10:04:26.000Z,100289
2018-06-14T10:08:12.000Z,100286
2018-06-14T10:10:12.000Z,100282
2018-06-14T10:11:57.000Z,100278
2018-06-14T10:13:12.000Z,100297
2018-06-14T10:14:12.000Z,100286
2018-06-14T10:15:12.000Z,100300
2018-06-14T10:17:12.000Z,100295
2018-06-14T10:18:57.000Z,100290
2018-06-14T10:19:57.000Z,100281
2018-06-14T10:22:12.000Z,100280
2018-06-14T10:24:12.000Z,100284
2018-06-14T10:26:12.000Z,100286
2018-06-14T10:28:12.000Z,100292
2018-06-14T10:32:12.000Z,100290
2018-06-14T10:35:58.000Z,100287
2018-06-14T10:36:58.000Z,100284
2018-06-14T10:38:58.000Z,100285
2018-06-14T10:40:58.000Z,100284
2018-06-14T10:42:43.000Z,100196
2018-06-14T10:43:58.000Z,100288
2018-06-14T10:44:58.000Z,100291
2018-06-14T10:45:58.000Z,100295
2018-06-14T10:47:43.000Z,100283
2018-06-14T10:48:58.000Z,100292
2018-06-14T10:50:58.000Z,100285
2018-06-14T10:51:58.000Z,100277
2018-06-14T10:53:58.000Z,100271
2018-06-14T10:55:58.000Z,100271
2018-06-14T10:57:43.000Z,100281
2018-06-14T10:59:58.000Z,100275
2018-06-14T11:00:58.000Z,100275
2018-06-14T11:02:58.000Z,100281
2018-06-14T11:03:58.000Z,100269
2018-06-14T11:04:58.000Z,100273
2018-06-14T11:06:58.000Z,100273
2018-06-14T11:08:43.000Z,100262
2018-06-14T11:09:58.000Z,100267
2018-06-14T11:11:58.000Z,100260
2018-06-14T11:12:58.000Z,100253
2018-06-14T11:14:58.000Z,100260
2018-06-14T11:16:43.000Z,100263
2018-06-14T11:17:58.000Z,100260
2018-06-14T11:19:58.000Z,100260
2018-06-14T11:20:58.000Z,100261
2018-06-14T11:22:58.000Z,100254
2018-06-14T11:24:58.000Z,100263
2018-06-14T11:26:58.000Z,100248
2018-06-14T11:28:43.000Z,100265
2018-06-14T11:29:58.000Z,100257
2018-06-14T11:31:43.000Z,100243
2018-06-14T11:32:58.000Z,100244
2018-06-14T11:34:59.000Z,100239
2018-06-14T11:36:59.000Z,100235
2018-06-14T11:38:44.000Z,100246
2018-06-14T11:39:59.000Z,100251
2018-06-14T11:41:59.000Z,100240
2018-06-14T11:42:59.000Z,100235
2018-06-14T11:44:44.000Z,100232
2018-06-14T11:45:59.000Z,100223
2018-06-14T11:47:59.000Z,100231
2018-06-14T11:48:59.000Z,100224
2018-06-14T11:50:59.000Z,100230
2018-06-14T11:52:59.000Z,100222
2018-06-14T11:53:59.000Z,100220
2018-06-14T11:55:59.000Z,100221
2018-06-14T11:57:59.000Z,100214
2018-06-14T11:58:59.000Z,100222
2018-06-14T12:00:59.000Z,100205
2018-06-14T12:01:59.000Z,100209
2018-06-14T12:03:59.000Z,100224
2018-06-14T12:05:59.000Z,100214
2018-06-14T12:07:59.000Z,100226
2018-06-14T12:09:59.000Z,100223
2018-06-14T12:11:59.000Z,100226
2018-06-14T12:13:59.000Z,100212
2018-06-14T12:15:59.000Z,100199
2018-06-14T12:17:59.000Z,100200
2018-06-14T12:19:59.000Z,100205
2018-06-14T12:21:59.000Z,100209
2018-06-14T12:23:44.000Z,100204
2018-06-14T12:24:59.000Z,100210
2018-06-14T12:25:59.000Z,100198
2018-06-14T12:27:59.000Z,100195
2018-06-14T12:29:59.000Z,100197
2018-06-14T12:30:59.000Z,100200
2018-06-14T12:32:59.000Z,100201
2018-06-14T12:33:59.000Z,100201
2018-06-14T12:35:44.000Z,100183
2018-06-14T12:36:59.000Z,100182
2018-06-14T12:38:44.000Z,100173
2018-06-14T12:39:59.000Z,100180
2018-06-14T12:40:59.000Z,100178
2018-06-14T12:41:59.000Z,100204
2018-06-14T12:43:59.000Z,100192
2018-06-14T12:45:59.000Z,100187
2018-06-14T12:46:59.000Z,100177
2018-06-14T12:48:59.000Z,100186
2018-06-14T12:49:59.000Z,100198
2018-06-14T12:51:59.000Z,100182
2018-06-14T12:53:59.000Z,100190
2018-06-14T12:55:59.000Z,100174
2018-06-14T12:57:59.000Z,100178
2018-06-14T12:59:59.000Z,100178
2018-06-14T13:01:44.000Z,100179
2018-06-14T13:02:44.000Z,100172
2018-06-14T13:03:59.000Z,100174
2018-06-14T13:04:59.000Z,100172
2018-06-14T13:06:44.000Z,100174
2018-06-14T13:07:59.000Z,100184
2018-06-14T13:09:59.000Z,100177
2018-06-14T13:10:59.000Z,100168
2018-06-14T13:12:59.000Z,100172
2018-06-14T13:13:59.000Z,100183
2018-06-14T13:14:59.000Z,100191
2018-06-14T13:16:59.000Z,100180
2018-06-14T13:17:59.000Z,100181
2018-06-14T13:18:59.000Z,100178
2018-06-14T13:20:44.000Z,100185
2018-06-14T13:21:44.000Z,100177
2018-06-14T13:22:59.000Z,100183
2018-06-14T13:24:59.000Z,100172
2018-06-14T13:25:59.000Z,100174
2018-06-14T13:26:59.000Z,100168
2018-06-14T13:28:59.000Z,100157
2018-06-14T13:29:59.000Z,100179
2018-06-14T13:31:59.000Z,100167
2018-06-14T13:32:59.000Z,100168
2018-06-14T13:34:59.000Z,100162
2018-06-14T13:36:44.000Z,100161
2018-06-14T13:37:59.000Z,100159
2018-06-14T13:38:59.000Z,100159
2018-06-14T13:40:59.000Z,100151
2018-06-14T13:42:59.000Z,100149
2018-06-14T13:44:59.000Z,100160
2018-06-14T13:46:59.000Z,100158
2018-06-14T13:47:59.000Z,100162
2018-06-14T13:49:59.000Z,100160
2018-06-14T13:51:59.000Z,100163
2018-06-14T13:52:59.000Z,100165
2018-06-14T13:53:59.000Z,100164
2018-06-14T13:55:59.000Z,100152
2018-06-14T13:56:59.000Z,100155
2018-06-14T13:57:59.000Z,100150
2018-06-14T13:59:59.000Z,100159
2018-06-14T14:00:59.000Z,100155
2018-06-14T14:02:59.000Z,100154
2018-06-14T14:04:59.000Z,100158
2018-06-14T14:06:59.000Z,100164
2018-06-14T14:08:59.000Z,100160
2018-06-14T14:10:59.000Z,100156
2018-06-14T14:12:44.000Z,100156
2018-06-14T14:13:59.000Z,100153
2018-06-14T14:15:59.000Z,100156
2018-06-14T14:17:44.000Z,100153
2018-06-14T14:18:59.000Z,100151
2018-06-14T14:20:59.000Z,100157
2018-06-14T14:21:59.000Z,100160
2018-06-14T14:23:59.000Z,100160
2018-06-14T14:25:59.000Z,100159
2018-06-14T14:27:44.000Z,100154
2018-06-14T14:28:59.000Z,100159
2018-06-14T14:29:59.000Z,100155
2018-06-14T14:31:59.000Z,100157
2018-06-14T14:32:59.000Z,100161
2018-06-14T14:34:44.000Z,100152
2018-06-14T14:35:44.000Z,100155
2018-06-14T14:36:59.000Z,100151
2018-06-14T14:38:59.000Z,100153
2018-06-14T14:40:59.000Z,100153
2018-06-14T14:41:59.000Z,100148
2018-06-14T14:43:44.000Z,100147
2018-06-14T14:44:59.000Z,100155
2018-06-14T14:46:59.000Z,100156
2018-06-14T14:48:43.000Z,100162
2018-06-14T14:49:59.000Z,100155
2018-06-14T14:50:59.000Z,100151
2018-06-14T14:52:59.000Z,100152
2018-06-14T14:53:59.000Z,100152
2018-06-14T14:55:59.000Z,100150
2018-06-14T14:57:59.000Z,100154
2018-06-14T14:59:59.000Z,100151
2018-06-14T15:01:59.000Z,100160
2018-06-14T15:03:59.000Z,100166
2018-06-14T15:05:59.000Z,100166
2018-06-14T15:07:59.000Z,100167
2018-06-14T15:09:59.000Z,100171
2018-06-14T15:11:59.000Z,100163
2018-06-14T15:13:59.000Z,100167
2018-06-14T15:15:59.000Z,100174
2018-06-14T15:16:59.000Z,100171
2018-06-14T15:18:43.000Z,100178
2018-06-14T15:19:59.000Z,100176
2018-06-14T15:21:59.000Z,100177
2018-06-14T15:23:59.000Z,100177
2018-06-14T15:25:43.000Z,100172
2018-06-14T15:26:59.000Z,100175
2018-06-14T15:27:59.000Z,100173
2018-06-14T15:28:59.000Z,100181
2018-06-14T15:29:59.000Z,100176
2018-06-14T15:31:59.000Z,100184
2018-06-14T15:33:43.000Z,100187
2018-06-14T15:34:59.000Z,100191
2018-06-14T15:36:59.000Z,100188
2018-06-14T15:38:59.000Z,100186
2018-06-14T15:40:59.000Z,100180
2018-06-14T15:42:43.000Z,100193
2018-06-14T15:43:59.000Z,100188
2018-06-14T15:44:59.000Z,100193
2018-06-14T15:46:59.000Z,100190
2018-06-14T15:48:59.000Z,100195
2018-06-14T15:50:59.000Z,100195
2018-06-14T15:51:59.000Z,100209
2018-06-14T15:52:59.000Z,100205
2018-06-14T15:54:59.000Z,100202
2018-06-14T15:56:59.000Z,100206
2018-06-14T15:58:59.000Z,100216
2018-06-14T16:00:59.000Z,100212
2018-06-14T16:02:59.000Z,100213
2018-06-14T16:04:59.000Z,100209
2018-06-14T16:06:59.000Z,100217
2018-06-14T16:07:59.000Z,100219
2018-06-14T16:09:59.000Z,100215
2018-06-14T16:11:59.000Z,100222
2018-06-14T16:13:59.000Z,100223
2018-06-14T16:15:59.000Z,100226
2018-06-14T16:16:59.000Z,100226
2018-06-14T16:17:59.000Z,100226
2018-06-14T16:18:59.000Z,100227
2018-06-14T16:20:44.000Z,100221
2018-06-14T16:21:59.000Z,100228
2018-06-14T16:22:59.000Z,100228
2018-06-14T16:23:59.000Z,100228
2018-06-14T16:25:59.000Z,100228
2018-06-14T16:26:59.000Z,100232
2018-06-14T16:28:59.000Z,100236
2018-06-14T16:30:59.000Z,100240
2018-06-14T16:31:59.000Z,100241
2018-06-14T16:33:59.000Z,100239
2018-06-14T16:35:59.000Z,100247
2018-06-14T16:37:59.000Z,100249
2018-06-14T16:38:59.000Z,100250
2018-06-14T16:40:59.000Z,100249
2018-06-14T16:41:59.000Z,100254
2018-06-14T16:43:59.000Z,100254
2018-06-14T16:45:59.000Z,100259
2018-06-14T16:47:59.000Z,100265
2018-06-14T16:49:59.000Z,100268
2018-06-14T16:50:59.000Z,100264
2018-06-14T16:52:59.000Z,100266
2018-06-14T16:54:59.000Z,100258
2018-06-14T16:55:59.000Z,100260
2018-06-14T16:57:59.000Z,100261
2018-06-14T16:59:59.000Z,100259
2018-06-14T17:01:43.000Z,100256
2018-06-14T17:03:59.000Z,100263
2018-06-14T17:05:59.000Z,100254
2018-06-14T17:07:59.000Z,100253
2018-06-14T17:09:59.000Z,100252
2018-06-14T17:11:59.000Z,100253
2018-06-14T17:13:59.000Z,100260
2018-06-14T17:14:59.000Z,100257
2018-06-14T17:16:28.000Z,100262
2018-06-14T17:17:59.000Z,100259
2018-06-14T17:19:59.000Z,100248
2018-06-14T17:20:59.000Z,100248
2018-06-14T17:22:43.000Z,100253
2018-06-14T17:23:59.000Z,100252
2018-06-14T17:25:59.000Z,100248
2018-06-14T17:27:59.000Z,100254
2018-06-14T17:28:59.000Z,100255
2018-06-14T17:30:59.000Z,100249
2018-06-14T17:32:59.000Z,100251
2018-06-14T17:33:59.000Z,100252
2018-06-14T17:35:43.000Z,100256
2018-06-14T17:36:59.000Z,100252
2018-06-14T17:38:59.000Z,100245
2018-06-14T17:40:43.000Z,100246
2018-06-14T17:41:59.000Z,100255
2018-06-14T17:43:43.000Z,100252
2018-06-14T17:44:59.000Z,100260
2018-06-14T17:45:59.000Z,100252
2018-06-14T17:47:59.000Z,100254
2018-06-14T17:49:59.000Z,100256
2018-06-14T17:51:59.000Z,100256
2018-06-14T17:53:43.000Z,100258
2018-06-14T17:54:59.000Z,100259
2018-06-14T17:56:58.000Z,100262
2018-06-14T17:57:58.000Z,100266
2018-06-14T17:58:58.000Z,100259
2018-06-14T18:00:43.000Z,100262
2018-06-14T18:01:58.000Z,100259
2018-06-14T18:02:58.000Z,100260
2018-06-14T18:04:28.000Z,100266
2018-06-14T18:05:58.000Z,100260
2018-06-14T18:07:58.000Z,100261
2018-06-14T18:08:58.000Z,100260
2018-06-14T18:10:43.000Z,100261
2018-06-14T18:11:58.000Z,100264
2018-06-14T18:13:58.000Z,100267
2018-06-14T18:15:58.000Z,100268
2018-06-14T18:17:43.000Z,100270
2018-06-14T18:18:58.000Z,100274
2018-06-14T18:20:58.000Z,100272
2018-06-14T18:22:58.000Z,100274
2018-06-14T18:24:43.000Z,100274
2018-06-14T18:25:58.000Z,100277
2018-06-14T18:27:58.000Z,100279
2018-06-14T18:28:58.000Z,100276
2018-06-14T18:30:58.000Z,100272
2018-06-14T18:32:58.000Z,100282
2018-06-14T18:34:43.000Z,100277
2018-06-14T18:35:58.000Z,100273
2018-06-14T18:36:58.000Z,100275
2018-06-14T18:37:58.000Z,100275
2018-06-14T18:39:58.000Z,100270
2018-06-14T18:41:28.000Z,100266
2018-06-14T18:42:58.000Z,100268
2018-06-14T18:43:58.000Z,100267
2018-06-14T18:44:58.000Z,100261
2018-06-14T18:46:58.000Z,100264
2018-06-14T18:48:58.000Z,100264
2018-06-14T18:49:58.000Z,100262
2018-06-14T18:51:58.000Z,100273
2018-06-14T18:53:58.000Z,100273
2018-06-14T18:55:58.000Z,100277
2018-06-14T18:57:58.000Z,100273
2018-06-14T18:59:58.000Z,100272
2018-06-14T19:00:59.000Z,100275
2018-06-14T19:02:59.000Z,100271
2018-06-14T19:04:59.000Z,100267
2018-06-14T19:06:44.000Z,100266
2018-06-14T19:07:59.000Z,100265
2018-06-14T19:08:59.000Z,100266
2018-06-14T19:12:59.000Z,100279
2018-06-14T19:14:45.000Z,100276
2018-06-14T19:15:45.000Z,100280
2018-06-14T19:17:30.000Z,100278
2018-06-14T19:18:45.000Z,100282
2018-06-14T19:20:30.000Z,100283
2018-06-14T19:21:45.000Z,100281
2018-06-14T19:22:45.000Z,100286
2018-06-14T19:24:45.000Z,100283
2018-06-14T19:25:45.000Z,100279
2018-06-14T19:27:45.000Z,100276
2018-06-14T19:29:45.000Z,100296
2018-06-14T19:31:45.000Z,100289
2018-06-14T19:33:45.000Z,100294
2018-06-14T19:34:45.000Z,100291
2018-06-14T19:36:45.000Z,100285
2018-06-14T19:37:45.000Z,100297
2018-06-14T19:39:14.000Z,100285
2018-06-14T19:40:45.000Z,100295
2018-06-14T19:42:45.000Z,100291
2018-06-14T19:44:45.000Z,100294
2018-06-14T19:46:45.000Z,100291
2018-06-14T19:48:30.000Z,100293
2018-06-14T19:49:45.000Z,100299
2018-06-14T19:51:45.000Z,100294
2018-06-14T19:53:45.000Z,100299
2018-06-14T19:55:30.000Z,100300
2018-06-14T19:56:45.000Z,100302
2018-06-14T19:58:45.000Z,100297
2018-06-14T19:59:45.000Z,100298
2018-06-14T20:01:45.000Z,100298
2018-06-14T20:03:45.000Z,100305
2018-06-14T20:05:45.000Z,100309
2018-06-14T20:07:45.000Z,100307
2018-06-14T20:09:30.000Z,100310
2018-06-14T20:10:45.000Z,100312
2018-06-14T20:11:45.000Z,100314
2018-06-14T20:12:45.000Z,100316